Time;durP1;ratioP1;P1;durP2;ratioP2;P2;SDS_P1;SDS_P2;PMS_P1;PMS_P2;Temp;Humidity;BMP_temperature;BMP_pressure;BME280_temperature;BME280_humidity;BME280_pressure;Samples;Min_cycle;Max_cycle;Signal;HPM_P1;HPM_P2
2021/10/11 00:01:53;;;;;;;15.40;8.40;;;;;;;10.99;46.08;100442.62;27343;1217;3026108;-79
2021/10/11 00:04:22;;;;;;;17.60;9.00;;;;;;;10.94;46.29;100447.05;27318;1218;3051170;-75
2021/10/11 00:06:50;;;;;;;14.20;8.90;;;;;;;10.92;46.43;100444.16;27292;1217;3028199;-72
2021/10/11 00:09:19;;;;;;;16.70;9.20;;;;;;;10.92;46.10;100443.61;27288;1218;3051033;-78
2021/10/11 00:12:04;;;;;;;21.90;9.50;;;;;;;10.90;46.08;100441.96;27215;1217;3054524;-72
2021/10/11 00:14:51;;;;;;;22.40;9.60;;;;;;;10.89;46.04;100435.88;27262;1217;3053345;-74
2021/10/11 00:17:21;;;;;;;17.40;9.10;;;;;;;10.88;46.27;100437.84;27281;1217;3026084;-72
2021/10/11 00:19:52;;;;;;;20.30;9.70;;;;;;;10.84;46.41;100434.02;27223;1217;3028868;-75
2021/10/11 00:22:27;;;;;;;22.00;10.20;;;;;;;10.80;46.37;100431.38;27251;1217;3055102;-67
2021/10/11 00:25:15;;;;;;;26.60;9.90;;;;;;;10.78;46.55;100429.19;27200;1218;3056460;-70
2021/10/11 00:27:47;;;;;;;23.20;10.00;;;;;;;10.76;46.57;100429.83;27236;1217;3026568;-75
2021/10/11 00:30:16;;;;;;;23.50;10.60;;;;;;;10.75;46.60;100428.98;27253;1217;3025962;-71
2021/10/11 00:32:47;;;;;;;18.60;10.00;;;;;;;10.74;46.49;100424.11;27281;1217;3054923;-70
2021/10/11 00:35:16;;;;;;;27.40;10.30;;;;;;;10.71;46.75;100423.02;27226;1218;3026831;-75
2021/10/11 00:37:44;;;;;;;19.60;9.50;;;;;;;10.70;46.80;100420.44;27237;1217;3026167;-73
2021/10/11 00:40:13;;;;;;;25.90;9.90;;;;;;;10.70;46.52;100416.43;27236;1217;3054615;-77
2021/10/11 00:42:45;;;;;;;18.50;9.60;;;;;;;10.68;46.83;100415.79;27243;1219;3026553;-73
2021/10/11 00:45:14;;;;;;;23.40;9.90;;;;;;;10.68;46.65;100412.47;27236;1219;3053536;-71
2021/10/11 00:47:43;;;;;;;21.50;9.20;;;;;;;10.66;46.75;100412.04;27233;1219;3029283;-73
2021/10/11 00:50:12;;;;;;;19.70;9.50;;;;;;;10.66;46.75;100410.15;27246;1217;3053813;-75
2021/10/11 00:52:41;;;;;;;18.40;9.40;;;;;;;10.63;46.77;100408.85;27255;1217;3026113;-72
2021/10/11 00:55:10;;;;;;;16.60;9.50;;;;;;;10.59;46.86;100410.61;27295;1217;3047647;-70
2021/10/11 00:57:39;;;;;;;18.00;9.60;;;;;;;10.59;46.77;100410.61;27264;1211;3026262;-73
2021/10/11 01:00:08;;;;;;;19.30;9.60;;;;;;;10.61;47.08;100409.13;27258;1219;3068016;-76
2021/10/11 01:02:37;;;;;;;17.20;9.40;;;;;;;10.56;47.14;100405.32;27244;1217;3028438;-70
2021/10/11 01:05:07;;;;;;;17.10;9.30;;;;;;;10.52;47.31;100406.71;27227;1219;3025949;-73
2021/10/11 01:07:36;;;;;;;17.40;9.20;;;;;;;10.50;47.38;100403.13;27254;1217;3067866;-70
2021/10/11 01:10:05;;;;;;;15.40;8.20;;;;;;;10.49;47.37;100402.14;27252;1217;3026086;-75
2021/10/11 01:12:34;;;;;;;22.80;9.50;;;;;;;10.47;47.41;100396.80;27447;1217;3051601;-70
2021/10/11 01:15:04;;;;;;;16.00;8.10;;;;;;;10.41;47.99;100393.23;27596;1217;3026126;-68
2021/10/11 01:17:33;;;;;;;13.20;7.60;;;;;;;10.35;47.99;100396.27;27292;1217;3052451;-71
2021/10/11 01:20:03;;;;;;;17.60;8.40;;;;;;;10.35;47.98;100392.08;27249;1217;3025808;-76
2021/10/11 01:22:38;;;;;;;20.30;8.30;;;;;;;10.31;48.32;100388.73;27298;1217;3025645;-74
2021/10/11 01:25:09;;;;;;;10.90;7.30;;;;;;;10.27;48.21;100390.98;27271;1217;3048875;-74
2021/10/11 01:27:39;;;;;;;16.00;8.40;;;;;;;10.24;48.36;100390.96;27345;1217;3025878;-69
2021/10/11 01:30:14;;;;;;;18.90;7.70;;;;;;;10.19;48.30;100387.47;27612;1210;3025873;-74
2021/10/11 01:32:45;;;;;;;19.50;7.80;;;;;;;10.16;48.56;100386.25;27372;1217;3049300;-78
2021/10/11 01:35:15;;;;;;;14.70;8.50;;;;;;;10.12;48.64;100382.54;27249;1217;3026165;-77
2021/10/11 01:37:47;;;;;;;14.20;7.40;;;;;;;10.09;48.74;100382.00;27223;1217;3027439;-75
2021/10/11 01:40:16;;;;;;;13.60;8.30;;;;;;;10.01;48.89;100379.00;27229;1217;3028433;-73
2021/10/11 01:42:46;;;;;;;16.10;8.20;;;;;;;9.95;48.86;100375.09;27223;1217;3025877;-73
2021/10/11 01:45:15;;;;;;;17.40;8.30;;;;;;;9.88;49.14;100375.04;27264;1217;3051583;-71
2021/10/11 01:47:44;;;;;;;15.90;7.80;;;;;;;9.82;49.26;100372.81;27241;1218;3026278;-75
2021/10/11 01:50:13;;;;;;;23.70;8.20;;;;;;;9.79;49.21;100371.38;27294;1217;3053958;-73
2021/10/11 01:52:42;;;;;;;15.70;7.40;;;;;;;9.77;49.39;100373.54;27285;1217;3026121;-70
2021/10/11 01:55:10;;;;;;;23.80;8.40;;;;;;;9.68;49.60;100375.34;27256;1217;3048206;-72
2021/10/11 01:57:40;;;;;;;14.80;7.70;;;;;;;9.62;49.74;100373.83;27253;1217;3026088;-75
2021/10/11 02:00:09;;;;;;;17.90;8.20;;;;;;;9.57;49.85;100375.80;27222;1217;3068136;-71
2021/10/11 02:02:40;;;;;;;13.40;8.20;;;;;;;9.52;49.90;100374.81;27288;1217;3026416;-71
2021/10/11 02:05:09;;;;;;;17.50;8.20;;;;;;;9.50;49.64;100375.04;27232;1217;3026749;-71
2021/10/11 02:07:38;;;;;;;26.30;8.50;;;;;;;9.47;49.84;100376.24;27237;1217;3069585;-75
2021/10/11 02:10:09;;;;;;;19.70;8.00;;;;;;;9.43;49.92;100379.36;27234;1219;3025917;-75
2021/10/11 02:12:39;;;;;;;18.90;7.80;;;;;;;9.31;50.67;100375.14;27219;1217;3049676;-72
2021/10/11 02:15:08;;;;;;;20.20;8.70;;;;;;;9.25;50.62;100377.80;27273;1217;3026108;-72
2021/10/11 02:17:37;;;;;;;16.90;8.20;;;;;;;9.22;50.68;100374.23;27246;1217;3027549;-73
2021/10/11 02:20:07;;;;;;;22.10;8.60;;;;;;;9.20;50.37;100377.11;27244;1210;3025941;-75
2021/10/11 02:22:36;;;;;;;16.50;8.50;;;;;;;9.19;50.70;100376.49;27215;1217;3068083;-73
2021/10/11 02:25:06;;;;;;;20.50;8.60;;;;;;;9.14;50.79;100374.94;27258;1218;3026479;-73
2021/10/11 02:27:36;;;;;;;24.30;8.90;;;;;;;9.10;50.87;100372.65;27328;1217;3052924;-71
2021/10/11 02:30:06;;;;;;;21.20;8.90;;;;;;;9.13;50.57;100367.63;27299;1217;3026407;-73
2021/10/11 02:32:36;;;;;;;21.00;8.70;;;;;;;9.12;50.65;100364.35;27303;1217;3026138;-73
2021/10/11 02:35:06;;;;;;;17.00;7.30;;;;;;;9.10;50.70;100356.42;27528;1210;3026874;-74
2021/10/11 02:37:36;;;;;;;18.00;8.60;;;;;;;9.05;50.93;100358.31;27530;1211;3025744;-73
2021/10/11 02:40:06;;;;;;;18.50;8.80;;;;;;;9.04;50.73;100356.81;27493;1217;3026072;-71
2021/10/11 02:42:36;;;;;;;17.50;8.00;;;;;;;9.04;50.80;100354.35;27440;1219;3027296;-71
2021/10/11 02:45:05;;;;;;;21.30;7.80;;;;;;;8.99;51.13;100351.94;27389;1217;3026433;-72
2021/10/11 02:47:35;;;;;;;20.20;8.10;;;;;;;8.97;50.94;100349.05;27455;1217;3057599;-77
2021/10/11 02:50:06;;;;;;;16.30;8.20;;;;;;;8.97;50.86;100349.57;27505;1217;3026331;-73
2021/10/11 02:52:38;;;;;;;16.40;7.60;;;;;;;8.98;50.80;100344.30;27479;1219;3026870;-70
2021/10/11 02:55:09;;;;;;;17.50;8.40;;;;;;;8.94;50.99;100347.61;27525;1217;3026075;-74
2021/10/11 02:57:38;;;;;;;14.80;8.10;;;;;;;8.91;50.97;100344.76;27505;1217;3026462;-69
2021/10/11 03:00:08;;;;;;;16.00;8.20;;;;;;;8.94;50.94;100342.02;27505;1217;3028502;-70
2021/10/11 03:02:37;;;;;;;16.80;8.10;;;;;;;8.95;50.76;100337.25;27544;1217;3026654;-70
2021/10/11 03:05:07;;;;;;;16.80;8.50;;;;;;;8.95;50.88;100333.23;27432;1210;3026543;-74
2021/10/11 03:07:36;;;;;;;22.00;8.70;;;;;;;8.96;50.61;100328.29;27299;1217;3048935;-75
2021/10/11 03:10:05;;;;;;;15.10;8.10;;;;;;;8.97;50.38;100325.10;27232;1217;3026349;-74
2021/10/11 03:12:35;;;;;;;18.70;8.70;;;;;;;8.98;50.64;100325.09;27224;1219;3070112;-76
2021/10/11 03:15:05;;;;;;;15.80;8.00;;;;;;;8.95;50.63;100322.39;27247;1219;3025951;-74
2021/10/11 03:17:36;;;;;;;17.10;8.50;;;;;;;8.94;50.76;100317.88;27236;1219;3026652;-72
2021/10/11 03:20:06;;;;;;;16.70;8.40;;;;;;;8.88;51.11;100322.52;27259;1219;3025924;-71
2021/10/11 03:22:35;;;;;;;21.80;8.40;;;;;;;8.86;51.53;100316.48;27253;1218;3048963;-69
2021/10/11 03:25:04;;;;;;;19.50;8.80;;;;;;;8.81;51.61;100313.33;27242;1218;3028197;-74
2021/10/11 03:27:34;;;;;;;19.50;9.50;;;;;;;8.81;50.91;100314.02;27254;1219;3070333;-74
2021/10/11 03:30:04;;;;;;;21.40;9.30;;;;;;;8.81;51.43;100316.33;27237;1219;3026672;-75
2021/10/11 03:32:34;;;;;;;17.70;8.10;;;;;;;8.78;51.43;100314.69;27242;1219;3026186;-77
2021/10/11 03:35:07;;;;;;;16.40;8.80;;;;;;;8.78;51.43;100312.77;27248;1220;3026549;-72
2021/10/11 03:37:36;;;;;;;15.80;8.10;;;;;;;8.75;51.34;100313.05;27211;1219;3026182;-73
2021/10/11 03:40:05;;;;;;;23.40;8.90;;;;;;;8.70;51.46;100313.77;27235;1219;3028342;-79
2021/10/11 03:42:36;;;;;;;14.70;8.70;;;;;;;8.67;51.71;100313.39;27227;1218;3051341;-76
2021/10/11 03:45:06;;;;;;;17.60;8.50;;;;;;;8.62;52.05;100313.39;27234;1218;3028795;-73
2021/10/11 03:47:37;;;;;;;17.70;9.00;;;;;;;8.59;52.00;100314.05;27202;1219;3052980;-76
2021/10/11 03:50:06;;;;;;;21.80;8.90;;;;;;;8.60;51.67;100311.02;27225;1218;3026257;-72
2021/10/11 03:52:37;;;;;;;19.20;7.60;;;;;;;8.62;51.57;100312.52;27224;1219;3027921;-76
2021/10/11 03:55:06;;;;;;;22.90;9.00;;;;;;;8.60;51.70;100310.30;27242;1219;3026387;-74
2021/10/11 03:57:35;;;;;;;15.30;7.90;;;;;;;8.54;52.23;100310.73;27261;1218;3054772;-75
2021/10/11 04:00:05;;;;;;;16.40;9.10;;;;;;;8.49;52.61;100307.44;27266;1221;3026926;-74
2021/10/11 04:02:41;;;;;;;16.90;7.90;;;;;;;8.45;52.86;100305.28;27243;1219;3053973;-69
2021/10/11 04:05:10;;;;;;;18.70;8.50;;;;;;;8.46;52.76;100304.57;27240;1219;3026436;-78
2021/10/11 04:07:42;;;;;;;16.80;8.50;;;;;;;8.46;53.01;100300.55;27249;1217;3050871;-76
2021/10/11 04:10:12;;;;;;;19.50;9.70;;;;;;;8.47;53.02;100295.80;27255;1219;3026007;-79
2021/10/11 04:12:44;;;;;;;18.20;9.10;;;;;;;8.53;52.52;100294.85;27274;1219;3029042;-72
2021/10/11 04:15:13;;;;;;;19.90;9.20;;;;;;;8.57;52.48;100296.46;27234;1218;3026718;-75
2021/10/11 04:17:43;;;;;;;20.70;8.50;;;;;;;8.60;52.51;100290.06;27237;1219;3028193;-72
2021/10/11 04:20:12;;;;;;;21.00;10.40;;;;;;;8.67;52.16;100286.64;27255;1217;3027158;-73
2021/10/11 04:22:41;;;;;;;21.20;9.00;;;;;;;8.70;51.86;100281.95;27253;1217;3058085;-72
2021/10/11 04:25:11;;;;;;;27.30;9.30;;;;;;;8.76;51.80;100278.80;27255;1217;3026291;-76
2021/10/11 04:27:40;;;;;;;17.40;8.60;;;;;;;8.77;52.04;100280.13;27259;1218;3028373;-72
2021/10/11 04:30:09;;;;;;;22.30;9.60;;;;;;;8.78;52.03;100278.70;27387;1217;3057340;-70
2021/10/11 04:32:38;;;;;;;16.20;9.10;;;;;;;8.82;51.83;100277.85;27516;1217;3027937;-71
2021/10/11 04:35:10;;;;;;;16.60;8.40;;;;;;;8.83;51.69;100276.57;27311;1218;3026279;-79
2021/10/11 04:37:40;;;;;;;19.70;9.50;;;;;;;8.90;51.36;100278.76;27252;1217;3026269;-78
2021/10/11 04:40:09;;;;;;;19.20;9.80;;;;;;;8.90;51.42;100275.05;27232;1217;3050875;-74
2021/10/11 04:42:38;;;;;;;22.20;9.10;;;;;;;8.90;51.31;100277.67;27281;1217;3026340;-76
2021/10/11 04:45:08;;;;;;;21.70;9.00;;;;;;;8.93;51.36;100275.12;27286;1211;3027543;-74
2021/10/11 04:47:38;;;;;;;28.30;9.70;;;;;;;8.93;51.14;100269.18;27510;1217;3049825;-70
2021/10/11 04:50:07;;;;;;;16.90;9.50;;;;;;;8.93;51.20;100267.60;27459;1210;3025724;-72
2021/10/11 04:52:36;;;;;;;22.60;9.30;;;;;;;8.97;50.94;100268.69;27346;1217;3026156;-77
2021/10/11 04:55:07;;;;;;;17.90;9.20;;;;;;;9.02;51.00;100269.36;27241;1218;3026428;-71
2021/10/11 04:57:36;;;;;;;20.90;9.50;;;;;;;9.03;50.80;100270.88;27288;1217;3026473;-72
2021/10/11 05:00:09;;;;;;;17.50;8.80;;;;;;;9.04;50.83;100271.88;27311;1217;3026413;-71
2021/10/11 05:02:39;;;;;;;17.70;10.00;;;;;;;9.07;50.79;100270.86;27307;1217;3067935;-69
2021/10/11 05:05:08;;;;;;;18.50;8.70;;;;;;;9.11;50.74;100265.63;27260;1209;3026817;-73
2021/10/11 05:07:38;;;;;;;19.10;9.20;;;;;;;9.14;50.51;100262.55;27239;1217;3026285;-73
2021/10/11 05:10:07;;;;;;;18.70;8.80;;;;;;;9.19;50.50;100262.00;27284;1217;3026442;-71
2021/10/11 05:12:37;;;;;;;14.60;8.30;;;;;;;9.19;50.62;100259.70;27242;1217;3048570;-72
2021/10/11 05:15:06;;;;;;;21.60;8.50;;;;;;;9.22;50.33;100260.61;27241;1217;3026704;-72
2021/10/11 05:17:36;;;;;;;20.20;9.20;;;;;;;9.23;50.52;100258.84;27265;1217;3069724;-73
2021/10/11 05:20:06;;;;;;;20.90;8.80;;;;;;;9.29;50.39;100253.70;27243;1209;3026877;-72
2021/10/11 05:22:36;;;;;;;20.10;7.90;;;;;;;9.36;50.40;100251.48;27263;1218;3026996;-70
2021/10/11 05:25:06;;;;;;;19.70;8.90;;;;;;;9.37;50.43;100248.45;27266;1219;3031270;-72
2021/10/11 05:27:35;;;;;;;19.30;9.10;;;;;;;9.41;50.29;100249.86;27246;1218;3026572;-73
2021/10/11 05:30:05;;;;;;;24.20;8.10;;;;;;;9.46;49.69;100252.30;27264;1217;3026505;-75
2021/10/11 05:32:34;;;;;;;17.90;8.90;;;;;;;9.46;49.98;100254.22;27280;1217;3053873;-74
2021/10/11 05:35:03;;;;;;;20.50;9.10;;;;;;;9.45;50.03;100251.30;27226;1217;3025753;-72
2021/10/11 05:37:32;;;;;;;20.30;9.00;;;;;;;9.44;50.21;100252.73;27287;1218;3053671;-75
2021/10/11 05:40:02;;;;;;;23.50;9.50;;;;;;;9.51;50.09;100254.84;27227;1219;3026279;-76
2021/10/11 05:42:32;;;;;;;20.10;8.30;;;;;;;9.57;49.89;100250.05;27214;1218;3026483;-72
2021/10/11 05:45:02;;;;;;;19.20;8.50;;;;;;;9.57;49.88;100249.67;27194;1217;3026182;-74
2021/10/11 05:47:31;;;;;;;19.50;8.70;;;;;;;9.60;49.71;100254.65;27292;1217;3026647;-73
2021/10/11 05:50:01;;;;;;;22.10;8.10;;;;;;;9.66;49.49;100247.02;27285;1217;3026371;-74
2021/10/11 05:52:30;;;;;;;16.60;8.00;;;;;;;9.69;49.29;100244.45;27245;1217;3048978;-74
2021/10/11 05:54:59;;;;;;;16.60;7.80;;;;;;;9.68;49.34;100245.19;27304;1218;3026451;-71
2021/10/11 05:57:28;;;;;;;21.00;8.40;;;;;;;9.69;49.53;100243.58;27268;1217;3058236;-77
2021/10/11 05:59:57;;;;;;;19.10;9.30;;;;;;;9.82;49.26;100244.24;27255;1217;3026204;-74
2021/10/11 06:02:26;;;;;;;25.80;8.90;;;;;;;9.88;49.09;100243.61;27258;1218;3052403;-71
2021/10/11 06:04:55;;;;;;;15.50;8.20;;;;;;;9.97;48.92;100248.29;27241;1217;3026206;-74
2021/10/11 06:07:24;;;;;;;18.00;8.50;;;;;;;10.00;48.66;100250.58;27261;1217;3050092;-71
2021/10/11 06:09:54;;;;;;;18.00;8.60;;;;;;;10.01;48.58;100251.56;27262;1217;3026136;-70
2021/10/11 06:12:23;;;;;;;16.60;8.00;;;;;;;10.13;48.03;100252.64;27287;1218;3051284;-73
2021/10/11 06:14:52;;;;;;;21.50;8.40;;;;;;;10.13;47.99;100254.02;27296;1217;3026286;-71
2021/10/11 06:17:21;;;;;;;20.70;8.80;;;;;;;10.16;47.96;100254.05;27267;1218;3068679;-76
2021/10/11 06:19:52;;;;;;;17.40;8.20;;;;;;;10.22;47.75;100256.39;27283;1218;3026571;-75
2021/10/11 06:22:21;;;;;;;18.10;8.30;;;;;;;10.25;47.62;100253.66;27242;1218;3050536;-75
2021/10/11 06:24:50;;;;;;;18.90;8.50;;;;;;;10.26;47.73;100252.04;27199;1219;3026819;-73
2021/10/11 06:27:19;;;;;;;29.90;9.30;;;;;;;10.30;47.67;100249.41;27286;1219;3052469;-74
2021/10/11 06:29:49;;;;;;;17.90;8.10;;;;;;;10.32;47.66;100243.67;27253;1218;3026131;-73
2021/10/11 06:32:17;;;;;;;17.00;9.20;;;;;;;10.41;47.59;100240.34;27272;1217;3048872;-72
2021/10/11 06:34:46;;;;;;;23.70;9.20;;;;;;;10.48;47.53;100236.30;27246;1218;3026148;-73
2021/10/11 06:37:15;;;;;;;16.40;7.80;;;;;;;10.55;47.31;100230.73;27269;1217;3055677;-73
2021/10/11 06:39:45;;;;;;;16.40;8.70;;;;;;;10.60;47.41;100232.59;27308;1219;3026537;-73
2021/10/11 06:42:14;;;;;;;19.20;8.70;;;;;;;10.65;47.16;100231.29;27260;1217;3026098;-73
2021/10/11 06:44:44;;;;;;;25.60;9.40;;;;;;;10.77;47.09;100231.58;27286;1218;3058857;-75
2021/10/11 06:47:14;;;;;;;24.90;9.40;;;;;;;10.81;46.89;100227.34;27271;1218;3026136;-75
2021/10/11 06:49:45;;;;;;;23.30;8.70;;;;;;;10.87;46.70;100226.15;27242;1219;3025683;-76
2021/10/11 06:52:15;;;;;;;19.90;9.00;;;;;;;10.94;46.56;100222.51;27268;1218;3055903;-78
2021/10/11 06:54:44;;;;;;;21.10;9.10;;;;;;;11.00;46.44;100219.77;27252;1217;3027960;-76
2021/10/11 06:57:13;;;;;;;26.50;8.50;;;;;;;11.02;46.29;100217.56;27294;1219;3051087;-74
2021/10/11 06:59:43;;;;;;;21.90;9.00;;;;;;;11.10;46.27;100218.91;27280;1218;3026067;-75
2021/10/11 07:02:12;;;;;;;18.80;8.70;;;;;;;11.19;46.24;100220.20;27305;1218;3026044;-77
2021/10/11 07:04:42;;;;;;;17.30;8.80;;;;;;;11.26;46.02;100220.00;27260;1218;3053047;-76
2021/10/11 07:07:11;;;;;;;16.10;8.70;;;;;;;11.32;45.86;100219.71;27270;1219;3029791;-72
2021/10/11 07:09:40;;;;;;;20.90;9.30;;;;;;;11.33;45.84;100213.30;27258;1219;3053267;-77
2021/10/11 07:12:09;;;;;;;26.30;8.60;;;;;;;11.40;45.82;100211.73;27266;1219;3026231;-72
2021/10/11 07:14:39;;;;;;;23.30;8.80;;;;;;;11.49;45.71;100213.72;27258;1219;3050592;-72
2021/10/11 07:17:09;;;;;;;19.00;8.50;;;;;;;11.58;45.49;100205.87;27251;1219;3027072;-72
2021/10/11 07:19:43;;;;;;;18.60;9.30;;;;;;;11.60;45.35;100206.15;27325;1218;3025995;-75
2021/10/11 07:22:14;;;;;;;22.70;8.40;;;;;;;11.68;45.12;100202.73;27262;1217;3047827;-76
2021/10/11 07:24:44;;;;;;;19.80;8.70;;;;;;;11.73;44.91;100198.58;27295;1217;3026367;-74
2021/10/11 07:27:13;;;;;;;19.10;8.90;;;;;;;11.84;44.64;100198.21;27246;1217;3026542;-72
2021/10/11 07:29:42;;;;;;;22.00;7.80;;;;;;;11.92;44.59;100192.83;27259;1219;3026720;-70
2021/10/11 07:32:11;;;;;;;20.60;9.10;;;;;;;12.00;44.29;100189.98;27230;1220;3052617;-71
2021/10/11 07:34:40;;;;;;;23.50;8.60;;;;;;;12.06;44.46;100187.20;27279;1219;3027642;-72
2021/10/11 07:37:09;;;;;;;20.80;8.90;;;;;;;12.11;44.38;100183.60;27337;1219;3048941;-72
2021/10/11 07:39:38;;;;;;;23.20;9.70;;;;;;;12.20;44.05;100183.77;27312;1219;3026303;-66
2021/10/11 07:42:07;;;;;;;19.60;8.30;;;;;;;12.26;43.87;100183.80;27323;1218;3069859;-77
2021/10/11 07:44:37;;;;;;;19.10;8.70;;;;;;;12.38;43.35;100184.53;27330;1219;3026547;-72
2021/10/11 07:47:06;;;;;;;17.30;8.90;;;;;;;12.40;43.45;100188.29;27298;1217;3029312;-68
2021/10/11 07:49:36;;;;;;;19.40;8.40;;;;;;;12.43;43.51;100185.14;27316;1218;3026225;-71
2021/10/11 07:52:05;;;;;;;24.80;8.90;;;;;;;12.48;43.37;100184.86;27345;1218;3028655;-75
2021/10/11 07:54:35;;;;;;;19.00;9.40;;;;;;;12.51;43.05;100183.08;27412;1219;3054060;-76
2021/10/11 07:57:04;;;;;;;24.90;9.40;;;;;;;12.62;43.11;100182.13;27348;1215;3028286;-74
2021/10/11 07:59:34;;;;;;;21.00;9.30;;;;;;;12.68;42.80;100182.27;27324;1218;3050656;-67
2021/10/11 08:02:03;;;;;;;29.00;9.60;;;;;;;12.78;43.10;100178.39;27254;1213;3026524;-71
2021/10/11 08:04:32;;;;;;;24.40;9.20;;;;;;;12.87;42.81;100175.73;27401;1216;3068703;-75
2021/10/11 08:07:01;;;;;;;32.40;9.80;;;;;;;12.93;42.50;100175.76;27528;1216;3026498;-73
2021/10/11 08:09:30;;;;;;;27.60;9.50;;;;;;;12.97;42.57;100175.84;27231;1216;3026145;-69
2021/10/11 08:12:00;;;;;;;22.00;9.70;;;;;;;13.07;42.58;100175.64;27244;1216;3070129;-70
2021/10/11 08:14:29;;;;;;;24.50;8.50;;;;;;;13.20;41.91;100174.00;27202;1213;3026277;-65
2021/10/11 08:16:58;;;;;;;26.10;8.80;;;;;;;13.22;41.52;100174.72;27280;1218;3053117;-69
2021/10/11 08:19:27;;;;;;;21.50;8.80;;;;;;;13.24;41.52;100176.89;27237;1219;3028375;-74
2021/10/11 08:21:56;;;;;;;25.70;9.40;;;;;;;13.30;41.45;100178.87;27206;1218;3051372;-69
2021/10/11 08:24:24;;;;;;;25.10;8.40;;;;;;;13.35;41.45;100179.08;27300;1218;3025914;-70
2021/10/11 08:26:53;;;;;;;23.90;9.00;;;;;;;13.35;41.54;100175.89;27286;1218;3048376;-68
2021/10/11 08:29:22;;;;;;;23.30;8.30;;;;;;;13.35;41.48;100173.98;27242;1217;3027882;-69
2021/10/11 08:31:52;;;;;;;18.20;8.00;;;;;;;13.30;41.87;100176.19;27254;1212;3055224;-74
2021/10/11 08:34:22;;;;;;;21.30;8.00;;;;;;;13.34;41.89;100173.29;27298;1219;3026227;-70
2021/10/11 08:36:51;;;;;;;26.20;8.40;;;;;;;13.42;41.61;100171.11;27239;1219;3026239;-69
2021/10/11 08:39:20;;;;;;;21.70;8.20;;;;;;;13.46;41.44;100170.83;27277;1219;3026042;-74
2021/10/11 08:41:50;;;;;;;18.80;7.30;;;;;;;13.51;41.49;100167.01;27283;1218;3048687;-73
2021/10/11 08:44:19;;;;;;;25.10;8.10;;;;;;;13.57;41.37;100166.48;27249;1218;3026216;-72
2021/10/11 08:46:48;;;;;;;18.80;8.40;;;;;;;13.61;41.17;100164.31;27273;1218;3026296;-70
2021/10/11 08:49:17;;;;;;;21.00;8.30;;;;;;;13.70;41.10;100162.00;27262;1219;3026314;-72
2021/10/11 08:51:46;;;;;;;23.80;8.60;;;;;;;13.74;41.12;100156.42;27270;1219;3054933;-73
2021/10/11 08:54:15;;;;;;;23.10;8.60;;;;;;;13.79;40.92;100154.41;27249;1218;3025615;-73
2021/10/11 08:56:44;;;;;;;28.50;9.30;;;;;;;13.82;40.82;100151.36;27290;1218;3052670;-71
2021/10/11 08:59:14;;;;;;;16.70;8.00;;;;;;;13.88;41.03;100150.80;27257;1217;3026573;-72
2021/10/11 09:01:43;;;;;;;23.90;8.50;;;;;;;14.00;40.87;100151.48;27217;1219;3026285;-71
2021/10/11 09:04:16;;;;;;;22.60;8.00;;;;;;;14.12;40.44;100142.59;27228;1218;3028838;-73
2021/10/11 09:07:05;;;;;;;20.70;8.30;;;;;;;14.25;40.38;100138.01;27245;1218;3053035;-72
2021/10/11 09:09:43;;;;;;;19.90;7.70;;;;;;;14.39;40.29;100132.75;27274;1219;3053630;-69
2021/10/11 09:12:26;;;;;;;24.50;9.50;;;;;;;14.44;39.82;100133.65;27251;1218;3068532;-70
2021/10/11 09:15:14;;;;;;;23.70;7.70;;;;;;;14.38;39.86;100131.04;27221;1219;3048499;-70
2021/10/11 09:17:49;;;;;;;21.80;8.20;;;;;;;14.47;39.82;100135.89;27263;1219;3055451;-67
2021/10/11 09:20:20;;;;;;;18.80;8.40;;;;;;;14.50;40.00;100129.90;27254;1219;3053129;-68
2021/10/11 09:22:51;;;;;;;21.90;8.20;;;;;;;14.56;39.63;100123.34;27202;1218;3026693;-73
2021/10/11 09:25:21;;;;;;;25.50;8.00;;;;;;;14.69;39.64;100123.41;27224;1219;3027552;-75
2021/10/11 09:27:52;;;;;;;19.10;7.60;;;;;;;14.73;39.70;100122.60;27281;1218;3027224;-73
2021/10/11 09:30:36;;;;;;;25.90;8.30;;;;;;;14.77;39.60;100120.91;27212;1219;3026033;-69
2021/10/11 09:33:10;;;;;;;30.70;8.10;;;;;;;14.81;39.12;100117.31;27265;1218;3067884;-70
2021/10/11 09:35:39;;;;;;;;;;;;;;;14.81;39.03;100109.86;27251;1219;3051065;-72
2021/10/11 09:38:29;;;;;;;22.70;7.20;;;;;;;14.75;39.28;100103.43;27254;1219;3029498;-67
2021/10/11 09:40:58;;;;;;;19.50;7.70;;;;;;;14.85;39.07;100100.62;27229;1219;3052189;-70
2021/10/11 09:43:30;;;;;;;27.60;8.20;;;;;;;14.93;39.34;100100.98;27217;1218;3027139;-69
2021/10/11 09:46:09;;;;;;;21.40;6.90;;;;;;;15.05;38.76;100089.91;27273;1219;3026869;-66
2021/10/11 09:48:53;;;;;;;16.00;6.90;;;;;;;15.12;38.29;100091.91;27309;1219;3053878;-71
2021/10/11 09:51:24;;;;;;;21.30;7.40;;;;;;;15.13;38.28;100089.48;27283;1217;3050626;-73
2021/10/11 09:53:53;;;;;;;14.50;7.30;;;;;;;15.21;37.96;100086.49;27313;1219;3028302;-66
2021/10/11 09:56:28;;;;;;;12.90;7.40;;;;;;;15.27;37.53;100079.70;27268;1219;3026243;-70
2021/10/11 09:59:02;;;;;;;16.00;7.20;;;;;;;15.33;37.51;100076.98;27299;1218;3054143;-68
2021/10/11 10:01:31;;;;;;;17.20;7.40;;;;;;;15.54;37.18;100067.61;27223;1219;3026480;-71
2021/10/11 10:04:00;;;;;;;19.60;7.90;;;;;;;15.79;36.76;100061.77;27291;1217;3026147;-74
2021/10/11 10:06:30;;;;;;;31.20;8.10;;;;;;;15.98;36.02;100060.21;27255;1218;3050956;-71
2021/10/11 10:09:01;;;;;;;22.00;7.80;;;;;;;16.03;35.93;100060.86;27363;1219;3026940;-71
2021/10/11 10:11:30;;;;;;;20.10;7.90;;;;;;;16.09;35.88;100060.43;27411;1218;3026238;-65
2021/10/11 10:14:01;;;;;;;21.50;7.20;;;;;;;16.10;36.10;100057.54;27497;1218;3025698;-66
2021/10/11 10:16:47;;;;;;;23.50;7.50;;;;;;;16.15;36.03;100057.16;27652;1216;3054223;-68
2021/10/11 10:19:16;;;;;;;20.00;7.30;;;;;;;16.16;35.90;100053.95;27599;1216;3054025;-69
2021/10/11 10:21:45;;;;;;;16.20;7.10;;;;;;;16.10;36.14;100047.66;27577;1216;3026659;-64
2021/10/11 10:24:22;;;;;;;15.00;7.10;;;;;;;16.17;36.28;100043.08;27637;1218;3054401;-65
2021/10/11 10:27:04;;;;;;;22.30;7.10;;;;;;;16.19;35.96;100034.76;27912;1216;3050838;-68
2021/10/11 10:29:46;;;;;;;18.10;6.50;;;;;;;16.14;35.70;100032.30;27620;1216;3069408;-64
2021/10/11 10:32:17;;;;;;;17.50;7.40;;;;;;;16.14;35.75;100030.59;27599;1218;3049231;-64
2021/10/11 10:35:07;;;;;;;13.70;6.80;;;;;;;16.07;36.06;100021.17;27589;1216;3025755;-65
2021/10/11 10:37:37;;;;;;;14.50;5.70;;;;;;;16.08;35.88;100018.13;27604;1217;3052769;-64
2021/10/11 10:40:10;;;;;;;16.50;5.80;;;;;;;16.06;36.16;100020.73;27651;1216;3025941;-68
2021/10/11 10:42:39;;;;;;;12.80;5.60;;;;;;;16.14;36.20;100012.52;27603;1218;3025934;-68
2021/10/11 10:45:20;;;;;;;15.50;6.10;;;;;;;16.20;36.37;100011.07;27634;1218;3027927;-63
2021/10/11 10:47:50;;;;;;;13.30;6.30;;;;;;;16.23;36.20;100009.20;27592;1218;3051659;-63
2021/10/11 10:50:21;;;;;;;19.60;6.50;;;;;;;16.20;36.41;100000.08;27611;1219;3025793;-62
2021/10/11 10:52:54;;;;;;;14.00;6.70;;;;;;;16.24;36.30;100001.54;27630;1218;3026520;-65
2021/10/11 10:55:24;;;;;;;14.20;5.80;;;;;;;16.25;36.25;100000.23;27572;1216;3052537;-66
2021/10/11 10:57:57;;;;;;;14.70;6.20;;;;;;;16.21;36.35;99997.36;27581;1212;3026039;-68
2021/10/11 11:00:27;;;;;;;14.80;5.70;;;;;;;16.19;36.30;99991.45;27387;1218;3057796;-71
2021/10/11 11:02:56;;;;;;;13.90;5.50;;;;;;;16.12;36.50;99993.94;27243;1219;3026318;-69
2021/10/11 11:05:26;;;;;;;12.30;5.90;;;;;;;16.11;36.63;99997.76;27273;1218;3026357;-68
2021/10/11 11:07:55;;;;;;;11.10;5.00;;;;;;;16.17;36.67;99996.80;27443;1219;3058212;-74
2021/10/11 11:10:27;;;;;;;11.10;5.60;;;;;;;16.14;36.81;99997.15;27285;1217;3027503;-71
2021/10/11 11:12:57;;;;;;;15.30;5.40;;;;;;;16.17;36.74;99996.55;27290;1219;3025735;-69
2021/10/11 11:15:37;;;;;;;14.20;5.60;;;;;;;16.22;36.66;99995.14;27229;1219;3026540;-68
2021/10/11 11:18:14;;;;;;;12.70;5.40;;;;;;;16.36;36.79;99990.40;27218;1217;3070361;-68
2021/10/11 11:20:44;;;;;;;14.50;5.30;;;;;;;16.40;36.66;99983.02;27215;1219;3050749;-70